Time;durP1;ratioP1;P1;durP2;ratioP2;P2;SDS_P1;SDS_P2;PMS_P1;PMS_P2;Temp;Humidity;BMP_temperature;BMP_pressure;BME280_temperature;BME280_humidity;BME280_pressure;Samples;Min_cycle;Max_cycle;Signal;HPM_P1;HPM_P2
2023/03/16 00:01:49;;;;;;;30.98;16.33;;;4.20;74.20;;;;;;5038063;28;20224;-83
2023/03/16 00:04:20;;;;;;;32.42;17.33;;;4.20;74.20;;;;;;5038419;28;20240;-85
2023/03/16 00:06:52;;;;;;;26.58;12.95;;;4.20;74.00;;;;;;5032606;28;20196;-83
2023/03/16 00:09:30;;;;;;;21.95;12.25;;;4.20;74.00;;;;;;5037434;28;20216;-85
2023/03/16 00:12:01;;;;;;;24.13;13.63;;;4.20;74.00;;;;;;5040527;28;20196;-82
2023/03/16 00:14:34;;;;;;;28.65;15.27;;;4.20;74.00;;;;;;5022268;28;20760;-83
2023/03/16 00:17:05;;;;;;;25.20;15.18;;;4.20;74.00;;;;;;5026309;28;20198;-83
2023/03/16 00:19:37;;;;;;;27.55;15.50;;;4.20;73.90;;;;;;5040553;28;20189;-83
2023/03/16 00:22:06;;;;;;;27.23;15.55;;;4.10;73.80;;;;;;5041472;28;20221;-83
2023/03/16 00:24:38;;;;;;;25.55;14.18;;;4.10;73.80;;;;;;5046668;28;20253;-83
2023/03/16 00:27:13;;;;;;;28.77;14.32;;;4.10;73.70;;;;;;5041858;28;20216;-82
2023/03/16 00:29:49;;;;;;;28.70;14.40;;;4.00;73.80;;;;;;5047534;28;20220;-82
2023/03/16 00:32:20;;;;;;;23.05;14.02;;;4.00;73.80;;;;;;5040948;28;20240;-82
2023/03/16 00:34:50;;;;;;;26.00;13.88;;;4.00;73.70;;;;;;5030262;28;20197;-82
2023/03/16 00:37:22;;;;;;;28.27;15.35;;;4.00;73.60;;;;;;5016887;28;20212;-82
2023/03/16 00:39:55;;;;;;;28.77;14.90;;;4.00;73.60;;;;;;5042766;28;20194;-82
2023/03/16 00:42:29;;;;;;;24.40;13.90;;;3.90;73.70;;;;;;5041300;28;20282;-82
2023/03/16 00:45:02;;;;;;;28.52;14.13;;;3.90;73.70;;;;;;5040598;28;20205;-82
2023/03/16 00:47:36;;;;;;;22.63;13.90;;;3.90;73.70;;;;;;5049085;28;20220;-82
2023/03/16 00:50:08;;;;;;;20.40;12.98;;;3.90;73.70;;;;;;5050401;28;20204;-83
2023/03/16 00:52:37;;;;;;;23.48;13.65;;;3.90;73.70;;;;;;5043239;28;20201;-83
2023/03/16 00:55:09;;;;;;;23.50;14.13;;;3.90;73.70;;;;;;5042025;28;20247;-81
2023/03/16 00:57:39;;;;;;;23.83;14.27;;;3.90;73.70;;;;;;5031222;28;20241;-82
2023/03/16 01:00:15;;;;;;;26.63;13.18;;;3.80;73.40;;;;;;5048256;28;20193;-82
2023/03/16 01:02:45;;;;;;;20.02;12.65;;;3.80;73.40;;;;;;5028904;28;20205;-82
2023/03/16 01:05:14;;;;;;;28.95;14.70;;;3.80;73.30;;;;;;5035595;28;20232;-82
2023/03/16 01:07:45;;;;;;;23.00;12.85;;;3.70;73.40;;;;;;5044391;28;20181;-82
2023/03/16 01:10:18;;;;;;;19.60;12.02;;;3.70;73.50;;;;;;5022157;28;20209;-81
2023/03/16 01:12:46;;;;;;;18.55;12.07;;;3.70;73.50;;;;;;5029761;28;20216;-82
2023/03/16 01:15:15;;;;;;;38.00;14.40;;;3.70;73.50;;;;;;5034855;28;20209;-82
2023/03/16 01:17:44;;;;;;;20.50;13.45;;;3.70;73.50;;;;;;5029036;28;20209;-82
2023/03/16 01:20:18;;;;;;;21.65;13.20;;;3.60;73.30;;;;;;5047398;28;20217;-81
2023/03/16 01:22:47;;;;;;;28.73;12.45;;;3.60;73.40;;;;;;5048968;28;20335;-82
2023/03/16 01:25:18;;;;;;;30.02;13.82;;;3.60;73.40;;;;;;5025313;28;20446;-82
2023/03/16 01:27:46;;;;;;;23.88;13.05;;;3.50;73.50;;;;;;5032571;28;20208;-82
2023/03/16 01:30:16;;;;;;;21.33;13.70;;;3.50;73.50;;;;;;5028934;28;20201;-82
2023/03/16 01:32:45;;;;;;;21.98;13.50;;;3.50;73.60;;;;;;5047344;28;20219;-82
2023/03/16 01:35:17;;;;;;;19.80;13.52;;;3.50;73.70;;;;;;5030900;28;20209;-82
2023/03/16 01:37:49;;;;;;;27.85;15.85;;;3.50;73.70;;;;;;5020925;28;20307;-81
2023/03/16 01:40:27;;;;;;;22.92;14.65;;;3.50;73.70;;;;;;5033687;28;20220;-82
2023/03/16 01:43:03;;;;;;;20.40;12.63;;;3.50;73.80;;;;;;5024478;28;20652;-83
2023/03/16 01:46:08;;;;;;;21.83;12.52;;;3.50;73.90;;;;;;5020672;28;20223;-83
2023/03/16 01:48:45;;;;;;;24.08;12.63;;;3.50;73.80;;;;;;5027547;28;20573;-81
2023/03/16 01:51:20;;;;;;;22.85;12.50;;;3.50;73.80;;;;;;5018332;28;20201;-83
2023/03/16 01:53:54;;;;;;;23.80;14.80;;;3.50;73.90;;;;;;5032335;28;20696;-82
2023/03/16 01:56:27;;;;;;;24.65;14.10;;;3.50;74.00;;;;;;5023971;28;20256;-82
2023/03/16 01:59:11;;;;;;;54.38;14.57;;;3.50;74.00;;;;;;5038503;28;20211;-83
2023/03/16 02:01:40;;;;;;;30.83;14.23;;;3.50;74.00;;;;;;5023905;28;20232;-83
2023/03/16 02:04:21;;;;;;;22.17;13.65;;;3.40;73.90;;;;;;5019662;28;20336;-83
2023/03/16 02:06:57;;;;;;;18.40;12.43;;;3.40;74.00;;;;;;5031575;28;20223;-83
2023/03/16 02:09:30;;;;;;;19.45;12.10;;;3.40;74.10;;;;;;5036541;28;20232;-83
2023/03/16 02:12:01;;;;;;;19.05;11.82;;;3.50;74.20;;;;;;5022761;28;20211;-83
2023/03/16 02:14:33;;;;;;;21.13;13.18;;;3.50;74.20;;;;;;5002974;28;20757;-83
2023/03/16 02:17:06;;;;;;;19.45;12.50;;;3.50;74.20;;;;;;5020371;28;20215;-83
2023/03/16 02:19:44;;;;;;;25.60;14.98;;;3.50;74.20;;;;;;5004994;28;20204;-86
2023/03/16 02:22:15;;;;;;;31.75;13.55;;;3.50;74.20;;;;;;5020570;28;20674;-84
2023/03/16 02:24:45;;;;;;;35.65;14.75;;;3.50;74.20;;;;;;5037985;28;20213;-85
2023/03/16 02:27:23;;;;;;;21.48;13.35;;;3.40;74.20;;;;;;5024514;28;20207;-84
2023/03/16 02:30:05;;;;;;;24.42;13.35;;;3.40;74.20;;;;;;5019868;28;20213;-84
2023/03/16 02:32:44;;;;;;;40.17;13.13;;;3.40;74.20;;;;;;4996494;28;20225;-86
2023/03/16 02:35:18;;;;;;;42.20;13.63;;;3.30;74.30;;;;;;5001631;28;20556;-82
2023/03/16 02:37:49;;;;;;;22.48;13.90;;;3.30;74.20;;;;;;5002709;28;20209;-83
2023/03/16 02:40:25;;;;;;;41.90;13.93;;;3.30;74.40;;;;;;5005441;28;20252;-82
2023/03/16 02:43:01;;;;;;;21.15;11.82;;;3.30;74.40;;;;;;4989676;28;20256;-80
2023/03/16 02:45:41;;;;;;;26.00;12.07;;;3.20;74.50;;;;;;5002585;28;20224;-81
2023/03/16 02:48:16;;;;;;;22.30;12.73;;;3.20;74.60;;;;;;5001088;28;20216;-84
2023/03/16 02:50:53;;;;;;;26.63;12.55;;;3.20;74.60;;;;;;5000158;28;20208;-84
2023/03/16 02:53:23;;;;;;;33.67;12.85;;;3.20;74.70;;;;;;5004614;28;20252;-83
2023/03/16 02:55:54;;;;;;;19.55;12.15;;;3.20;74.80;;;;;;5003898;28;20194;-82
2023/03/16 02:58:24;;;;;;;21.83;12.07;;;3.20;74.80;;;;;;5003939;28;20209;-84
2023/03/16 03:01:22;;;;;;;19.55;12.23;;;3.20;74.90;;;;;;5003132;28;20236;-82
2023/03/16 03:03:52;;;;;;;21.52;12.35;;;3.30;74.90;;;;;;5003137;28;20574;-80
2023/03/16 03:06:24;;;;;;;22.75;13.35;;;3.20;74.90;;;;;;5003905;28;20226;-80
2023/03/16 03:08:53;;;;;;;31.75;13.75;;;3.30;75.00;;;;;;5015932;28;20597;-84
2023/03/16 03:11:22;;;;;;;20.90;13.05;;;3.30;75.00;;;;;;4986571;28;20209;-83
2023/03/16 03:13:52;;;;;;;24.50;13.80;;;3.30;75.00;;;;;;5001080;28;20214;-83
2023/03/16 03:16:25;;;;;;;28.52;14.10;;;3.30;75.10;;;;;;5004814;28;20201;-83
2023/03/16 03:18:55;;;;;;;21.17;13.10;;;3.30;75.10;;;;;;5009128;28;20208;-83
2023/03/16 03:21:25;;;;;;;21.50;12.63;;;3.30;75.10;;;;;;5026803;28;20261;-83
2023/03/16 03:23:54;;;;;;;45.42;14.73;;;3.30;75.10;;;;;;5009165;28;20240;-83
2023/03/16 03:26:25;;;;;;;54.05;14.60;;;3.30;75.10;;;;;;5011426;28;20221;-83
2023/03/16 03:28:56;;;;;;;36.72;14.55;;;3.30;75.10;;;;;;5012876;28;20196;-85
2023/03/16 03:31:27;;;;;;;42.25;14.55;;;3.30;75.00;;;;;;5029457;28;20279;-86
2023/03/16 03:33:58;;;;;;;23.00;12.85;;;3.20;75.10;;;;;;5025686;28;20205;-82
2023/03/16 03:36:34;;;;;;;42.10;15.30;;;3.20;75.20;;;;;;5008906;28;20233;-82
2023/03/16 03:39:08;;;;;;;91.88;16.42;;;3.20;75.30;;;;;;5004851;28;20290;-82
2023/03/16 03:41:38;;;;;;;35.83;15.55;;;3.20;75.20;;;;;;5007763;28;20209;-82
2023/03/16 03:44:13;;;;;;;76.43;17.17;;;3.10;74.90;;;;;;5008612;28;20197;-83
2023/03/16 03:46:43;;;;;;;85.32;22.13;;;3.10;75.00;;;;;;5015771;28;20223;-82
2023/03/16 03:49:23;;;;;;;67.38;18.33;;;3.00;74.90;;;;;;5009246;28;20213;-82
2023/03/16 03:51:51;;;;;;;55.20;16.13;;;2.90;74.90;;;;;;5008666;28;20267;-82
2023/03/16 03:54:24;;;;;;;44.60;13.90;;;2.80;75.20;;;;;;5010677;28;20209;-82
2023/03/16 03:57:00;;;;;;;59.53;16.55;;;2.80;75.40;;;;;;5018533;28;20201;-83
2023/03/16 03:59:30;;;;;;;77.35;16.95;;;2.80;75.50;;;;;;5012994;28;20206;-83
2023/03/16 04:02:21;;;;;;;61.80;15.85;;;2.80;75.50;;;;;;5023785;28;20224;-84
2023/03/16 04:04:54;;;;;;;27.33;15.15;;;2.70;75.30;;;;;;5011692;28;20614;-84
2023/03/16 04:07:24;;;;;;;33.47;15.65;;;2.70;75.20;;;;;;5006475;28;20214;-83
2023/03/16 04:09:57;;;;;;;30.13;15.10;;;2.70;75.50;;;;;;5024342;28;20236;-83
2023/03/16 04:12:34;;;;;;;43.70;16.65;;;2.70;75.60;;;;;;5031554;28;20197;-83
2023/03/16 04:15:03;;;;;;;84.65;16.77;;;2.70;75.70;;;;;;5007292;28;20205;-83
2023/03/16 04:17:41;;;;;;;59.28;14.98;;;2.70;75.80;;;;;;5008366;28;20202;-82
2023/03/16 04:20:17;;;;;;;28.35;13.48;;;2.70;75.70;;;;;;5007685;28;20214;-83
2023/03/16 04:22:48;;;;;;;38.45;15.50;;;2.70;75.70;;;;;;5008588;28;20295;-83
2023/03/16 04:25:18;;;;;;;28.98;14.10;;;2.70;75.70;;;;;;5008253;28;20202;-83
2023/03/16 04:27:50;;;;;;;42.30;15.18;;;2.70;75.90;;;;;;5012187;28;20225;-83
2023/03/16 04:30:22;;;;;;;28.20;15.25;;;2.70;76.00;;;;;;5024164;28;20210;-83
2023/03/16 04:32:58;;;;;;;26.08;14.85;;;2.70;76.00;;;;;;5008403;28;20212;-83
2023/03/16 04:35:48;;;;;;;36.65;13.85;;;2.70;76.10;;;;;;5004093;28;20201;-82
2023/03/16 04:38:21;;;;;;;22.95;13.35;;;2.80;76.10;;;;;;5001603;28;20202;-85
2023/03/16 04:41:10;;;;;;;25.88;12.77;;;2.80;76.10;;;;;;5003324;28;20229;-83
2023/03/16 04:43:47;;;;;;;40.58;12.77;;;2.80;76.20;;;;;;4996886;28;20914;-83
2023/03/16 04:46:31;;;;;;;34.55;14.13;;;2.80;75.90;;;;;;5001063;28;20228;-82
2023/03/16 04:49:08;;;;;;;66.43;15.48;;;2.80;76.00;;;;;;5003293;28;20209;-82
2023/03/16 04:51:47;;;;;;;37.08;15.82;;;2.80;76.00;;;;;;5019104;28;20253;-82
2023/03/16 04:54:22;;;;;;;58.40;19.63;;;2.70;75.90;;;;;;5010768;28;20217;-82
2023/03/16 04:57:11;;;;;;;23.67;14.20;;;2.70;76.00;;;;;;5003201;28;20193;-82
2023/03/16 04:59:55;;;;;;;18.77;12.20;;;2.70;76.10;;;;;;5002703;28;20206;-83
2023/03/16 05:02:34;;;;;;;18.73;12.55;;;2.70;76.20;;;;;;5000124;28;20232;-84
2023/03/16 05:05:06;;;;;;;36.08;14.30;;;2.70;76.20;;;;;;5004070;28;20215;-84
2023/03/16 05:07:42;;;;;;;37.00;14.43;;;2.70;76.10;;;;;;5002192;28;20213;-84
2023/03/16 05:10:14;;;;;;;24.83;15.30;;;2.70;76.10;;;;;;5003563;28;20217;-83
2023/03/16 05:12:42;;;;;;;20.83;13.25;;;2.70;76.10;;;;;;5019000;28;20213;-83
2023/03/16 05:15:14;;;;;;;21.10;12.70;;;2.70;76.20;;;;;;4993748;28;20241;-83
2023/03/16 05:17:45;;;;;;;37.88;13.63;;;2.70;76.20;;;;;;5016189;28;20205;-83
2023/03/16 05:20:52;;;;;;;20.30;12.70;;;2.80;76.20;;;;;;4996359;28;20206;-84
2023/03/16 05:23:26;;;;;;;56.60;16.00;;;2.70;76.20;;;;;;4994636;28;20638;-82
2023/03/16 05:26:03;;;;;;;35.00;15.20;;;2.70;76.10;;;;;;4997000;28;20228;-83
2023/03/16 05:28:35;;;;;;;128.35;19.90;;;2.70;75.80;;;;;;5003386;28;20197;-83
2023/03/16 05:31:07;;;;;;;68.43;22.50;;;2.60;75.90;;;;;;5015431;28;20253;-83
2023/03/16 05:33:44;;;;;;;43.15;18.92;;;2.50;75.60;;;;;;5035872;28;20216;-85
2023/03/16 05:36:18;;;;;;;50.13;17.25;;;2.40;75.70;;;;;;5024531;28;20262;-87
2023/03/16 05:38:54;;;;;;;67.40;21.20;;;2.40;76.10;;;;;;5028219;28;20254;-86
2023/03/16 05:41:31;;;;;;;35.22;16.70;;;2.40;76.00;;;;;;5037687;28;20201;-82
2023/03/16 05:44:23;;;;;;;45.10;16.83;;;2.30;75.80;;;;;;5030175;28;20236;-83
2023/03/16 05:47:17;;;;;;;49.60;19.05;;;2.20;75.90;;;;;;5024287;28;20635;-82
2023/03/16 05:49:55;;;;;;;31.27;18.17;;;2.20;76.00;;;;;;5027688;28;20224;-83
2023/03/16 05:52:36;;;;;;;45.58;18.50;;;2.20;76.00;;;;;;5021838;28;20196;-83
2023/03/16 05:55:17;;;;;;;59.38;17.40;;;2.10;76.00;;;;;;5025558;28;20205;-83
2023/03/16 05:57:51;;;;;;;27.20;14.70;;;2.10;76.00;;;;;;5039293;28;20219;-83
2023/03/16 06:00:22;;;;;;;49.83;16.83;;;2.00;75.90;;;;;;5017588;28;20216;-82
2023/03/16 06:03:08;;;;;;;64.10;15.95;;;2.00;76.00;;;;;;5019847;28;20216;-82
2023/03/16 06:05:38;;;;;;;34.25;16.20;;;2.00;76.30;;;;;;5027851;28;20236;-82
2023/03/16 06:08:14;;;;;;;30.63;15.55;;;2.00;76.20;;;;;;5034547;28;20236;-83
2023/03/16 06:10:49;;;;;;;25.92;14.00;;;2.00;76.30;;;;;;5041823;28;20216;-84
2023/03/16 06:13:20;;;;;;;25.52;15.07;;;2.10;76.40;;;;;;5042220;28;20254;-84
2023/03/16 06:15:54;;;;;;;28.05;15.90;;;2.10;76.50;;;;;;5046369;28;20631;-84
2023/03/16 06:18:25;;;;;;;41.50;18.17;;;2.20;76.40;;;;;;5033537;28;20202;-83
2023/03/16 06:20:54;;;;;;;30.85;15.52;;;2.20;76.40;;;;;;5053114;28;20234;-82
2023/03/16 06:23:24;;;;;;;27.98;15.38;;;2.20;76.30;;;;;;5035628;28;20264;-82
2023/03/16 06:25:58;;;;;;;28.65;17.05;;;2.20;76.30;;;;;;5035939;28;20193;-82
2023/03/16 06:28:29;;;;;;;25.20;15.27;;;2.20;76.30;;;;;;5042048;28;20219;-82
2023/03/16 06:30:58;;;;;;;28.42;17.42;;;2.20;76.20;;;;;;5034746;28;20255;-82
2023/03/16 06:33:31;;;;;;;40.38;19.48;;;2.20;76.30;;;;;;5041398;28;20212;-82
2023/03/16 06:36:01;;;;;;;33.25;16.13;;;2.10;76.30;;;;;;5035958;28;20224;-82
2023/03/16 06:38:34;;;;;;;49.55;22.58;;;2.10;76.20;;;;;;5044035;28;20210;-82
2023/03/16 06:41:27;;;;;;;37.15;22.77;;;2.10;76.30;;;;;;5033898;28;20235;-82
2023/03/16 06:43:57;;;;;;;39.90;19.23;;;2.10;76.50;;;;;;5050501;28;20211;-82
2023/03/16 06:46:27;;;;;;;27.75;16.55;;;2.20;76.60;;;;;;5024659;28;20221;-81
2023/03/16 06:49:07;;;;;;;47.17;25.38;;;2.20;76.50;;;;;;5050877;28;20210;-81
2023/03/16 06:51:36;;;;;;;35.60;19.60;;;2.30;76.80;;;;;;5037580;28;20194;-83
2023/03/16 06:54:07;;;;;;;32.25;19.33;;;2.40;76.80;;;;;;5052420;28;20216;-82
2023/03/16 06:56:42;;;;;;;25.60;15.52;;;2.50;76.80;;;;;;5034685;28;20221;-82
2023/03/16 06:59:17;;;;;;;46.05;24.15;;;2.50;76.70;;;;;;5047012;28;20314;-82
2023/03/16 07:01:50;;;;;;;29.13;17.80;;;2.60;76.70;;;;;;5037750;28;20983;-82
2023/03/16 07:04:22;;;;;;;26.67;17.98;;;2.60;76.50;;;;;;5036760;28;20208;-80
2023/03/16 07:06:52;;;;;;;25.25;16.05;;;2.60;76.40;;;;;;5011251;28;20231;-82
2023/03/16 07:09:24;;;;;;;27.92;17.90;;;2.60;76.50;;;;;;5034011;28;20241;-82
2023/03/16 07:11:54;;;;;;;26.85;18.35;;;2.60;76.50;;;;;;5018394;28;20197;-82
2023/03/16 07:14:25;;;;;;;28.88;18.25;;;2.60;76.50;;;;;;5016141;28;20203;-81
2023/03/16 07:16:59;;;;;;;28.85;18.80;;;2.60;76.60;;;;;;5037598;28;20200;-81
2023/03/16 07:19:28;;;;;;;32.75;20.40;;;2.70;76.70;;;;;;5029217;28;20198;-82
2023/03/16 07:22:01;;;;;;;30.17;19.38;;;2.80;76.80;;;;;;5019577;28;20233;-81
2023/03/16 07:24:36;;;;;;;28.95;18.30;;;2.90;76.80;;;;;;5017713;28;20201;-82
2023/03/16 07:27:11;;;;;;;32.00;21.33;;;2.90;76.80;;;;;;5013606;28;20237;-82
2023/03/16 07:29:42;;;;;;;35.45;21.65;;;3.00;76.70;;;;;;5001429;28;20215;-83
2023/03/16 07:32:11;;;;;;;32.83;21.08;;;3.10;76.70;;;;;;5026323;28;20787;-82
2023/03/16 07:34:52;;;;;;;39.50;22.25;;;3.10;76.80;;;;;;5024635;28;20699;-85
2023/03/16 07:37:31;;;;;;;34.60;22.73;;;3.20;76.80;;;;;;5004738;28;20205;-82
2023/03/16 07:40:07;;;;;;;35.53;21.27;;;3.20;76.80;;;;;;5024158;28;20259;-81
2023/03/16 07:42:40;;;;;;;36.97;23.10;;;3.30;76.80;;;;;;5042211;28;20283;-81
2023/03/16 07:45:16;;;;;;;33.65;21.15;;;3.30;76.70;;;;;;5009474;28;20198;-84
2023/03/16 07:47:48;;;;;;;35.70;21.20;;;3.30;76.60;;;;;;5025730;28;20219;-81
2023/03/16 07:50:35;;;;;;;30.00;18.60;;;3.40;76.70;;;;;;5020235;28;20208;-83
2023/03/16 07:53:07;;;;;;;30.85;19.23;;;3.40;76.70;;;;;;5027697;28;20647;-85
2023/03/16 07:55:38;;;;;;;32.03;20.00;;;3.40;76.70;;;;;;5021729;28;20275;-82
2023/03/16 07:58:10;;;;;;;32.25;19.45;;;3.40;76.80;;;;;;5037437;28;20197;-85
2023/03/16 08:00:42;;;;;;;29.05;17.27;;;3.50;76.80;;;;;;5017502;28;20233;-83
2023/03/16 08:03:11;;;;;;;32.00;19.75;;;3.50;76.80;;;;;;4996758;28;20229;-85
2023/03/16 08:05:48;;;;;;;32.30;18.90;;;3.50;76.90;;;;;;5004274;28;20208;-83
2023/03/16 08:08:19;;;;;;;35.55;21.15;;;3.60;77.00;;;;;;5001394;28;20217;-81
2023/03/16 08:10:52;;;;;;;33.28;19.10;;;3.60;77.10;;;;;;5021748;28;20210;-81
2023/03/16 08:13:37;;;;;;;28.23;17.65;;;3.70;77.20;;;;;;5002787;28;20236;-83
2023/03/16 08:16:09;;;;;;;29.75;17.13;;;3.70;77.20;;;;;;5003199;28;20229;-84
2023/03/16 08:18:41;;;;;;;32.75;18.10;;;3.80;77.10;;;;;;5002581;28;20209;-84
2023/03/16 08:21:13;;;;;;;27.63;17.20;;;3.80;77.20;;;;;;5013761;28;20206;-83
2023/03/16 08:23:46;;;;;;;29.23;16.65;;;3.80;77.40;;;;;;5002245;28;20205;-82
2023/03/16 08:26:25;;;;;;;26.50;16.85;;;3.90;77.40;;;;;;5004607;28;20546;-81
2023/03/16 08:29:02;;;;;;;24.52;15.20;;;4.00;77.40;;;;;;5015184;28;20209;-84
2023/03/16 08:31:36;;;;;;;29.40;17.52;;;4.00;77.50;;;;;;4974523;28;20276;-84
2023/03/16 08:34:16;;;;;;;25.83;15.57;;;4.00;77.60;;;;;;5004765;28;20269;-84
2023/03/16 08:36:45;;;;;;;28.40;18.27;;;4.10;77.70;;;;;;5004644;28;20202;-83
2023/03/16 08:39:18;;;;;;;25.05;15.98;;;4.20;77.70;;;;;;5006767;28;20963;-83
2023/03/16 08:41:48;;;;;;;24.80;14.98;;;4.20;77.70;;;;;;5007141;28;20210;-85
2023/03/16 08:44:27;;;;;;;25.30;15.90;;;4.20;77.80;;;;;;4987374;28;20292;-83
2023/03/16 08:46:56;;;;;;;29.23;15.52;;;4.30;77.80;;;;;;5014866;28;20293;-82
2023/03/16 08:49:26;;;;;;;29.35;15.80;;;4.30;78.00;;;;;;5020651;28;20264;-84
2023/03/16 08:52:10;;;;;;;28.20;16.55;;;4.40;78.10;;;;;;4994815;28;20225;-83
2023/03/16 08:54:40;;;;;;;23.67;14.48;;;4.40;78.20;;;;;;5018859;28;20280;-86
2023/03/16 08:57:20;;;;;;;28.67;16.80;;;4.40;78.20;;;;;;4984227;28;20232;-85
2023/03/16 08:59:50;;;;;;;33.60;18.70;;;4.50;78.20;;;;;;5003547;28;20229;-85
2023/03/16 09:02:19;;;;;;;32.45;19.05;;;4.50;78.30;;;;;;4997026;28;20229;-88
2023/03/16 09:04:55;;;;;;;22.05;14.65;;;4.50;78.40;;;;;;5019880;28;20189;-81
2023/03/16 09:07:23;;;;;;;27.58;16.60;;;4.60;78.60;;;;;;5020429;28;20220;-84
2023/03/16 09:09:54;;;;;;;25.05;14.18;;;4.70;78.40;;;;;;4996320;28;20224;-82
2023/03/16 09:12:25;;;;;;;26.20;14.55;;;4.80;78.40;;;;;;5018326;28;20197;-82
2023/03/16 09:14:55;;;;;;;26.65;16.13;;;4.80;78.40;;;;;;5017289;28;20204;-89
2023/03/16 09:17:27;;;;;;;26.92;15.48;;;4.80;78.30;;;;;;5010312;28;20277;-85
2023/03/16 09:20:02;;;;;;;28.35;17.48;;;4.90;78.30;;;;;;5018639;28;20197;-89
2023/03/16 09:22:51;;;;;;;25.83;16.27;;;4.90;78.30;;;;;;5015331;28;20213;-81
2023/03/16 09:25:27;;;;;;;24.83;16.40;;;4.90;78.30;;;;;;5030032;28;20225;-87
2023/03/16 09:27:56;;;;;;;29.00;18.58;;;5.00;78.50;;;;;;4999841;28;20209;-87
2023/03/16 09:30:29;;;;;;;26.98;16.70;;;5.00;78.40;;;;;;5026942;28;20240;-88
2023/03/16 09:32:59;;;;;;;25.50;15.65;;;5.10;78.40;;;;;;5010326;28;20235;-82
2023/03/16 09:35:28;;;;;;;28.25;18.55;;;5.20;78.40;;;;;;5011168;28;20213;-82
2023/03/16 09:38:04;;;;;;;26.52;16.05;;;5.20;78.50;;;;;;5009146;28;20213;-84
2023/03/16 09:40:36;;;;;;;31.17;18.88;;;5.30;78.40;;;;;;5024857;28;20205;-82
2023/03/16 09:43:33;;;;;;;32.28;17.50;;;5.30;78.40;;;;;;5010084;28;20185;-82
2023/03/16 09:46:10;;;;;;;25.13;14.15;;;5.30;78.50;;;;;;5007775;28;20217;-82
2023/03/16 09:48:41;;;;;;;27.73;16.85;;;5.40;78.50;;;;;;5010353;28;20217;-83
2023/03/16 09:51:19;;;;;;;31.80;20.33;;;5.50;78.30;;;;;;5023322;28;20256;-81
2023/03/16 09:53:56;;;;;;;25.88;16.38;;;5.50;78.20;;;;;;5013475;28;20235;-83
2023/03/16 09:56:31;;;;;;;24.33;14.70;;;5.60;78.10;;;;;;5010854;28;20236;-81
2023/03/16 09:59:10;;;;;;;24.70;14.60;;;5.50;78.10;;;;;;5012939;28;20197;-83
2023/03/16 10:01:55;;;;;;;24.70;14.90;;;5.60;78.20;;;;;;5010823;28;20288;-80
2023/03/16 10:04:41;;;;;;;23.88;14.02;;;5.70;78.30;;;;;;4989504;28;20697;-81
2023/03/16 10:07:31;;;;;;;23.48;13.55;;;5.70;78.10;;;;;;5001134;28;20214;-85
2023/03/16 10:10:10;;;;;;;24.63;15.00;;;5.80;78.20;;;;;;5019546;28;20240;-84
2023/03/16 10:12:51;;;;;;;25.80;14.57;;;5.90;78.30;;;;;;5006521;28;20225;-83
2023/03/16 10:15:27;;;;;;;24.67;14.68;;;5.90;78.20;;;;;;5011604;28;20270;-83
2023/03/16 10:18:05;;;;;;;22.02;12.65;;;5.90;78.20;;;;;;5009321;28;20216;-83
2023/03/16 10:20:37;;;;;;;22.90;14.32;;;6.00;78.20;;;;;;5025745;28;20221;-81
2023/03/16 10:23:15;;;;;;;27.27;17.52;;;6.00;78.10;;;;;;5012137;28;20221;-80
2023/03/16 10:25:49;;;;;;;22.40;12.57;;;6.10;78.20;;;;;;5027017;28;20206;-82
2023/03/16 10:28:20;;;;;;;20.35;12.27;;;6.20;78.00;;;;;;5019672;28;20216;-82
2023/03/16 10:30:53;;;;;;;20.65;13.00;;;6.30;77.90;;;;;;5012421;28;20237;-81
2023/03/16 10:33:26;;;;;;;22.98;13.90;;;6.30;78.00;;;;;;5007081;28;20221;-83
2023/03/16 10:36:05;;;;;;;25.92;15.05;;;6.40;78.00;;;;;;4997462;28;20278;-82
2023/03/16 10:38:45;;;;;;;22.90;13.13;;;6.40;78.00;;;;;;5022091;28;20222;-85
2023/03/16 10:41:25;;;;;;;21.60;13.82;;;6.50;77.80;;;;;;5016484;28;20206;-83
2023/03/16 10:43:56;;;;;;;22.67;12.95;;;6.60;77.50;;;;;;5018594;28;20222;-81
2023/03/16 10:46:28;;;;;;;20.73;12.80;;;6.60;77.30;;;;;;5019589;28;20238;-82
2023/03/16 10:49:00;;;;;;;21.73;13.20;;;6.60;77.50;;;;;;5001073;28;20216;-80
2023/03/16 10:51:32;;;;;;;19.67;12.80;;;6.70;77.40;;;;;;5021375;28;20227;-81
2023/03/16 10:54:09;;;;;;;22.27;13.63;;;6.80;77.10;;;;;;5014057;28;20208;-81
2023/03/16 10:56:44;;;;;;;20.67;12.50;;;6.80;77.20;;;;;;5021103;28;20211;-84
2023/03/16 10:59:16;;;;;;;19.77;13.10;;;6.80;77.30;;;;;;4994510;28;20215;-85
2023/03/16 11:01:55;;;;;;;19.38;11.77;;;6.80;77.10;;;;;;5006717;28;20238;-80
2023/03/16 11:04:34;;;;;;;19.08;12.45;;;7.00;77.00;;;;;;5006462;28;20215;-80
2023/03/16 11:07:03;;;;;;;18.35;11.27;;;7.00;77.10;;;;;;5002851;28;20216;-84
2023/03/16 11:09:36;;;;;;;24.13;11.43;;;7.10;77.10;;;;;;5007814;28;20220;-80
2023/03/16 11:12:16;;;;;;;17.13;10.90;;;7.20;76.80;;;;;;5023629;28;20222;-80
2023/03/16 11:14:45;;;;;;;17.10;10.73;;;7.20;76.70;;;;;;5002384;28;20776;-82
2023/03/16 11:17:18;;;;;;;24.45;14.32;;;7.30;76.50;;;;;;5008355;28;20197;-82
2023/03/16 11:19:54;;;;;;;19.35;12.55;;;7.40;76.30;;;;;;5024095;28;20200;-85
2023/03/16 11:22:25;;;;;;;18.75;11.80;;;7.40;76.40;;;;;;5019603;28;20204;-82
2023/03/16 11:25:03;;;;;;;21.23;13.00;;;7.40;76.60;;;;;;5019272;28;20215;-81
2023/03/16 11:27:38;;;;;;;16.13;10.93;;;7.50;76.50;;;;;;5007608;28;20211;-83
2023/03/16 11:30:16;;;;;;;21.25;12.90;;;7.60;76.40;;;;;;5024108;28;20224;-82
2023/03/16 11:32:49;;;;;;;18.15;11.68;;;7.70;76.30;;;;;;5024384;28;20312;-85
2023/03/16 11:35:24;;;;;;;20.77;13.57;;;7.70;76.20;;;;;;5004034;28;20211;-81
2023/03/16 11:38:09;;;;;;;18.63;11.60;;;7.80;76.10;;;;;;5006111;28;20215;-83
2023/03/16 11:41:08;;;;;;;19.67;10.47;;;7.90;76.10;;;;;;5004435;28;21668;-83
2023/03/16 11:44:02;;;;;;;19.40;10.70;;;7.90;75.80;;;;;;5003061;28;20460;-85
2023/03/16 11:46:36;;;;;;;17.67;11.50;;;8.00;75.60;;;;;;5011064;28;20747;-82
2023/03/16 11:49:35;;;;;;;15.63;10.43;;;7.90;75.40;;;;;;5021002;28;20940;-86
2023/03/16 11:52:16;;;;;;;19.13;11.23;;;8.10;75.40;;;;;;5018823;28;20471;-83
2023/03/16 11:55:00;;;;;;;14.98;9.95;;;8.10;75.30;;;;;;5002122;28;20214;-82
2023/03/16 11:57:40;;;;;;;27.00;15.13;;;8.10;75.30;;;;;;5014430;28;20209;-82
2023/03/16 12:00:32;;;;;;;19.63;11.65;;;8.10;75.20;;;;;;5023466;28;20462;-81
2023/03/16 12:03:57;;;;;;;25.77;14.70;;;8.20;75.00;;;;;;5023443;28;20848;-81
2023/03/16 12:06:34;;;;;;;17.27;10.60;;;8.20;75.00;;;;;;5018877;28;20513;-83
2023/03/16 12:09:18;;;;;;;15.97;10.50;;;8.30;75.10;;;;;;4983411;28;20225;-82
2023/03/16 12:11:55;;;;;;;13.93;9.40;;;8.40;75.20;;;;;;5026480;28;20500;-81
2023/03/16 12:14:29;;;;;;;18.63;11.27;;;8.50;75.20;;;;;;5026214;28;20223;-82
2023/03/16 12:17:02;;;;;;;19.63;12.00;;;8.60;74.70;;;;;;5022453;28;20474;-81
2023/03/16 12:19:41;;;;;;;15.32;10.20;;;8.60;74.30;;;;;;5014005;28;20483;-81
2023/03/16 12:22:18;;;;;;;18.33;9.80;;;8.60;74.00;;;;;;5025980;28;20206;-82
2023/03/16 12:24:58;;;;;;;15.93;9.33;;;8.70;74.20;;;;;;5021692;28;20455;-81
2023/03/16 12:27:34;;;;;;;16.93;9.80;;;8.70;74.00;;;;;;5029501;28;20495;-82
2023/03/16 12:30:13;;;;;;;16.03;10.37;;;8.80;73.70;;;;;;5015429;28;20460;-81
2023/03/16 12:32:49;;;;;;;16.30;10.10;;;8.80;73.60;;;;;;5027557;28;20460;-83
2023/03/16 12:35:32;;;;;;;17.33;10.13;;;8.90;73.40;;;;;;5010211;28;20479;-82
2023/03/16 12:38:20;;;;;;;17.67;10.87;;;8.90;73.20;;;;;;5025704;28;20458;-84
2023/03/16 12:41:07;;;;;;;15.13;9.90;;;8.90;73.20;;;;;;5009219;28;20463;-81
2023/03/16 12:43:48;;;;;;;15.10;10.13;;;8.90;73.10;;;;;;5020620;28;20470;-82
2023/03/16 12:46:24;;;;;;;13.57;9.43;;;8.90;73.10;;;;;;5030712;28;20452;-79
2023/03/16 12:48:57;;;;;;;14.10;9.10;;;8.90;73.10;;;;;;5014029;28;20572;-80
2023/03/16 12:51:37;;;;;;;16.30;9.97;;;9.00;72.80;;;;;;5009157;28;20476;-80
2023/03/16 12:54:07;;;;;;;12.80;8.20;;;9.00;73.10;;;;;;5017949;28;21117;-81
2023/03/16 12:56:49;;;;;;;12.47;8.20;;;9.00;72.80;;;;;;5010150;28;20452;-86
2023/03/16 12:59:24;;;;;;;11.97;8.03;;;9.10;72.60;;;;;;5027561;28;20471;-81
2023/03/16 13:01:57;;;;;;;14.10;8.90;;;9.10;72.50;;;;;;5012497;28;20514;-85
2023/03/16 13:04:32;;;;;;;12.90;8.13;;;9.20;72.50;;;;;;5028040;28;20459;-81
2023/03/16 13:07:09;;;;;;;11.90;6.77;;;9.30;72.40;;;;;;5006211;28;20475;-82
2023/03/16 13:09:44;;;;;;;12.17;8.80;;;9.30;72.10;;;;;;5011756;28;20467;-82
2023/03/16 13:12:25;;;;;;;14.60;7.90;;;9.40;72.20;;;;;;5027231;28;20467;-83
2023/03/16 13:14:55;;;;;;;15.30;8.67;;;9.40;71.90;;;;;;5012686;28;20460;-85
2023/03/16 13:17:27;;;;;;;13.10;8.20;;;9.50;71.50;;;;;;5009569;28;20468;-84
2023/03/16 13:20:25;;;;;;;11.40;7.20;;;9.40;71.30;;;;;;5012092;28;20457;-82